createdAt,value
2022-10-31T00:00:21.513Z,11.17
2022-10-31T00:01:21.394Z,11.21
2022-10-31T00:02:21.369Z,11.29
2022-10-31T00:03:21.358Z,11.28
2022-10-31T00:04:21.343Z,10.98
2022-10-31T00:05:21.309Z,11.07
2022-10-31T00:06:21.349Z,10.98
2022-10-31T00:07:21.331Z,11.10
2022-10-31T00:08:21.327Z,11.14
2022-10-31T00:09:21.453Z,11.01
2022-10-31T00:10:21.424Z,11.10
2022-10-31T00:11:21.554Z,11.16
2022-10-31T00:12:21.513Z,11.20
2022-10-31T00:14:21.415Z,11.14
2022-10-31T00:15:21.333Z,11.24
2022-10-31T00:16:21.303Z,11.17
2022-10-31T00:17:21.358Z,11.16
2022-10-31T00:18:21.365Z,11.10
2022-10-31T00:19:21.238Z,11.17
2022-10-31T00:20:21.251Z,10.99
2022-10-31T00:21:21.246Z,11.10
2022-10-31T00:22:21.331Z,10.88
2022-10-31T00:23:21.181Z,10.91
2022-10-31T00:24:21.227Z,10.98
2022-10-31T00:25:21.155Z,10.88
2022-10-31T00:26:21.155Z,11.01
2022-10-31T00:27:21.245Z,11.01
2022-10-31T00:28:21.494Z,11.01
2022-10-31T00:29:21.262Z,11.06
2022-10-31T00:30:21.217Z,11.03
2022-10-31T00:31:21.236Z,11.06
2022-10-31T00:32:21.199Z,11.06
2022-10-31T00:33:21.317Z,11.03
2022-10-31T00:34:21.204Z,10.99
2022-10-31T00:35:21.295Z,11.06
2022-10-31T00:36:21.193Z,10.89
2022-10-31T00:37:21.344Z,10.86
2022-10-31T00:38:21.069Z,10.78
2022-10-31T00:39:21.124Z,10.77
2022-10-31T00:40:21.180Z,10.78
2022-10-31T00:41:21.091Z,10.80
2022-10-31T00:42:21.065Z,10.66
2022-10-31T00:43:21.053Z,10.70
2022-10-31T00:44:21.125Z,10.65
2022-10-31T00:45:21.143Z,10.68
2022-10-31T00:46:21.117Z,10.58
2022-10-31T00:47:22.106Z,10.62
2022-10-31T00:48:21.103Z,10.62
2022-10-31T00:49:21.099Z,10.71
2022-10-31T00:50:21.113Z,10.60
2022-10-31T00:51:21.067Z,10.71
2022-10-31T00:52:21.085Z,10.70
2022-10-31T00:53:21.047Z,10.68
2022-10-31T00:54:20.987Z,10.68
2022-10-31T00:55:21.004Z,10.63
2022-10-31T00:56:20.967Z,10.70
2022-10-31T00:57:21.009Z,10.68
2022-10-31T00:58:20.928Z,10.70
2022-10-31T00:59:20.941Z,10.74
2022-10-31T01:00:20.980Z,10.84
2022-10-31T01:01:21.160Z,10.84
2022-10-31T01:02:21.118Z,10.98
2022-10-31T01:03:21.001Z,11.06
2022-10-31T01:04:20.989Z,11.01
2022-10-31T01:05:20.939Z,11.09
2022-10-31T01:06:21.026Z,11.07
2022-10-31T01:07:20.940Z,11.09
2022-10-31T01:08:20.952Z,11.02
2022-10-31T01:09:20.905Z,11.03
2022-10-31T01:10:20.925Z,10.96
2022-10-31T01:11:20.936Z,10.78
2022-10-31T01:12:20.909Z,10.71
2022-10-31T01:14:20.837Z,10.62
2022-10-31T01:15:20.952Z,10.53
2022-10-31T01:16:20.825Z,10.52
2022-10-31T01:17:20.915Z,10.51
2022-10-31T01:18:20.780Z,10.68
2022-10-31T01:19:20.938Z,10.60
2022-10-31T01:20:20.843Z,10.70
2022-10-31T01:21:21.022Z,10.81
2022-10-31T01:22:20.955Z,10.78
2022-10-31T01:23:20.929Z,10.86
2022-10-31T01:24:20.822Z,10.81
2022-10-31T01:25:20.831Z,10.83
2022-10-31T01:26:20.830Z,10.80
2022-10-31T01:27:20.794Z,10.76
2022-10-31T01:28:20.879Z,10.63
2022-10-31T01:29:20.819Z,10.62
2022-10-31T01:30:20.802Z,10.56
2022-10-31T01:31:20.762Z,10.71
2022-10-31T01:32:20.707Z,10.66
2022-10-31T01:33:20.685Z,10.73
2022-10-31T01:34:20.686Z,10.71
2022-10-31T01:35:20.727Z,10.70
2022-10-31T01:36:20.692Z,10.78
2022-10-31T01:37:20.636Z,10.78
2022-10-31T01:38:20.659Z,10.68
2022-10-31T01:39:20.676Z,10.65
2022-10-31T01:40:20.655Z,10.63
2022-10-31T01:41:20.632Z,10.74
2022-10-31T01:42:52.357Z,10.83
2022-10-31T01:44:21.884Z,10.73
2022-10-31T01:45:20.753Z,10.81
2022-10-31T01:46:20.771Z,10.76
2022-10-31T01:47:20.765Z,10.88
2022-10-31T01:48:20.737Z,10.89
2022-10-31T01:49:20.618Z,10.89
2022-10-31T01:50:20.697Z,10.80
2022-10-31T01:51:20.670Z,10.80
2022-10-31T01:52:20.710Z,10.71
2022-10-31T01:53:24.360Z,10.71
2022-10-31T01:54:22.642Z,10.68
2022-10-31T01:55:20.667Z,10.63
2022-10-31T01:56:20.580Z,10.60
2022-10-31T01:57:20.560Z,10.66
2022-10-31T01:58:20.505Z,10.68
2022-10-31T01:59:20.558Z,10.60
2022-10-31T02:00:20.506Z,10.59
2022-10-31T02:01:20.812Z,10.65
2022-10-31T02:02:20.701Z,10.60
2022-10-31T02:03:20.620Z,10.68
2022-10-31T02:04:20.564Z,10.62
2022-10-31T02:05:20.605Z,10.66
2022-10-31T02:06:20.560Z,10.63
2022-10-31T02:07:20.684Z,10.59
2022-10-31T02:08:20.598Z,10.59
2022-10-31T02:09:20.628Z,10.62
2022-10-31T02:10:20.527Z,10.53
2022-10-31T02:11:20.506Z,10.58
2022-10-31T02:12:20.731Z,10.55
2022-10-31T02:13:20.583Z,10.56
2022-10-31T02:14:20.389Z,10.62
2022-10-31T02:15:20.381Z,10.58
2022-10-31T02:16:20.469Z,10.55
2022-10-31T02:17:20.433Z,10.62
2022-10-31T02:18:20.396Z,10.62
2022-10-31T02:19:20.373Z,10.70
2022-10-31T02:20:20.378Z,10.62
2022-10-31T02:21:20.360Z,10.68
2022-10-31T02:22:20.525Z,10.65
2022-10-31T02:23:20.396Z,10.65
2022-10-31T02:24:20.455Z,10.68
2022-10-31T02:25:20.385Z,10.70
2022-10-31T02:26:20.442Z,10.51
2022-10-31T02:27:20.400Z,10.46
2022-10-31T02:28:20.578Z,10.46
2022-10-31T02:29:21.466Z,10.42
2022-10-31T02:30:20.482Z,10.28
2022-10-31T02:31:20.388Z,10.24
2022-10-31T02:32:20.339Z,10.30
2022-10-31T02:33:20.368Z,10.14
2022-10-31T02:34:20.336Z,10.12
2022-10-31T02:35:20.271Z,10.07
2022-10-31T02:36:20.235Z,10.17
2022-10-31T02:37:20.269Z,10.07
2022-10-31T02:38:20.215Z,10.06
2022-10-31T02:39:20.336Z,10.18
2022-10-31T02:40:20.241Z,10.07
2022-10-31T02:41:20.293Z,10.09
2022-10-31T02:42:20.283Z,10.06
2022-10-31T02:43:20.274Z,10.03
2022-10-31T02:44:20.299Z,10.15
2022-10-31T02:45:20.309Z,10.09
2022-10-31T02:46:20.280Z,10.06
2022-10-31T02:47:20.291Z,10.12
2022-10-31T02:48:20.233Z,9.97
2022-10-31T02:49:20.342Z,10.07
2022-10-31T02:50:20.261Z,9.93
2022-10-31T02:51:20.294Z,9.99
2022-10-31T02:52:20.150Z,9.96
2022-10-31T02:53:20.125Z,9.91
2022-10-31T02:54:20.104Z,10.01
2022-10-31T02:55:20.241Z,10.00
2022-10-31T02:56:20.091Z,9.99
2022-10-31T02:57:20.087Z,9.89
2022-10-31T02:59:20.148Z,10.04
2022-10-31T03:00:20.260Z,10.03
2022-10-31T03:01:20.255Z,9.99
2022-10-31T03:02:20.197Z,10.12
2022-10-31T03:03:20.161Z,10.09
2022-10-31T03:04:20.132Z,10.09
2022-10-31T03:05:20.092Z,10.12
2022-10-31T03:06:20.124Z,10.12
2022-10-31T03:07:20.100Z,10.15
2022-10-31T03:08:20.154Z,10.14
2022-10-31T03:09:20.078Z,10.04
2022-10-31T03:10:20.202Z,10.09
2022-10-31T03:11:20.105Z,9.96
2022-10-31T03:12:19.999Z,9.91
2022-10-31T03:13:20.007Z,9.91
2022-10-31T03:14:19.935Z,9.97
2022-10-31T03:15:19.971Z,9.91
2022-10-31T03:16:19.964Z,9.99
2022-10-31T03:17:20.163Z,9.94
2022-10-31T03:18:19.966Z,9.91
2022-10-31T03:19:19.938Z,9.91
2022-10-31T03:20:19.913Z,9.97
2022-10-31T03:21:20.002Z,9.93
2022-10-31T03:22:20.161Z,9.89
2022-10-31T03:23:19.992Z,9.78
2022-10-31T03:24:19.963Z,9.88
2022-10-31T03:25:20.050Z,9.75
2022-10-31T03:26:20.951Z,9.64
2022-10-31T03:27:19.968Z,9.64
2022-10-31T03:29:19.983Z,9.50
2022-10-31T03:30:19.945Z,9.50
2022-10-31T03:31:19.991Z,9.53
2022-10-31T03:32:19.846Z,9.58
2022-10-31T03:33:19.857Z,9.61
2022-10-31T03:34:19.966Z,9.61
2022-10-31T03:35:19.862Z,9.56
2022-10-31T03:36:19.815Z,9.56
2022-10-31T03:37:19.964Z,9.63
2022-10-31T03:38:20.025Z,9.66
2022-10-31T03:39:19.968Z,9.60
2022-10-31T03:40:19.915Z,9.61
2022-10-31T03:41:19.918Z,9.71
2022-10-31T03:42:19.846Z,9.63
2022-10-31T03:43:19.899Z,9.61
2022-10-31T03:44:19.886Z,9.46
2022-10-31T03:45:20.824Z,9.32
2022-10-31T03:46:19.823Z,9.39
2022-10-31T03:47:19.787Z,9.45
2022-10-31T03:48:19.763Z,9.42
2022-10-31T03:49:19.751Z,9.35
2022-10-31T03:50:19.908Z,9.34
2022-10-31T03:51:19.707Z,9.43
2022-10-31T03:52:19.705Z,9.38
2022-10-31T03:53:19.701Z,9.43
2022-10-31T03:54:19.862Z,9.28
2022-10-31T03:55:19.748Z,9.23
2022-10-31T03:56:19.838Z,9.20
2022-10-31T03:57:19.775Z,9.12
2022-10-31T03:59:19.846Z,9.01
2022-10-31T04:00:19.909Z,9.16
2022-10-31T04:01:19.800Z,9.04
2022-10-31T04:02:20.033Z,9.04
2022-10-31T04:03:19.690Z,9.09
2022-10-31T04:04:19.671Z,9.15
2022-10-31T04:05:19.701Z,9.18
2022-10-31T04:06:19.637Z,9.15
2022-10-31T04:07:19.608Z,9.20
2022-10-31T04:08:19.696Z,9.21
2022-10-31T04:09:19.600Z,9.21
2022-10-31T04:10:19.645Z,9.25
2022-10-31T04:11:19.679Z,9.32
2022-10-31T04:12:19.737Z,9.24
2022-10-31T04:14:20.631Z,9.32
2022-10-31T04:15:19.605Z,9.28
2022-10-31T04:16:19.641Z,9.35
2022-10-31T04:17:19.666Z,9.35
2022-10-31T04:18:19.597Z,9.34
2022-10-31T04:19:19.650Z,9.39
2022-10-31T04:20:19.536Z,9.42
2022-10-31T04:21:19.513Z,9.32
2022-10-31T04:22:19.729Z,9.38
2022-10-31T04:23:19.524Z,9.39
2022-10-31T04:24:19.462Z,9.27
2022-10-31T04:25:19.484Z,9.38
2022-10-31T04:26:19.451Z,9.32
2022-10-31T04:27:19.522Z,9.21
2022-10-31T04:29:20.613Z,9.21
2022-10-31T04:30:19.531Z,9.24
2022-10-31T04:31:19.482Z,9.20
2022-10-31T04:32:19.519Z,9.12
2022-10-31T04:33:19.575Z,9.05
2022-10-31T04:34:19.530Z,9.21
2022-10-31T04:35:19.510Z,9.18
2022-10-31T04:36:19.478Z,9.16
2022-10-31T04:37:19.460Z,9.09
2022-10-31T04:38:19.489Z,9.16
2022-10-31T04:39:24.232Z,9.18
2022-10-31T04:40:21.495Z,9.23
2022-10-31T04:41:19.531Z,9.18
2022-10-31T04:42:19.362Z,9.16
2022-10-31T04:44:19.380Z,9.16
2022-10-31T04:45:21.273Z,9.18
2022-10-31T04:46:19.544Z,9.10
2022-10-31T04:47:19.337Z,9.13
2022-10-31T04:48:19.312Z,9.12
2022-10-31T04:49:19.340Z,9.10
2022-10-31T04:50:19.312Z,9.18
2022-10-31T04:51:19.466Z,9.13
2022-10-31T04:52:19.384Z,9.20
2022-10-31T04:53:19.400Z,9.27
2022-10-31T04:54:19.381Z,9.21
2022-10-31T04:55:19.377Z,9.13
2022-10-31T04:56:19.435Z,9.04
2022-10-31T04:57:19.327Z,9.04
2022-10-31T04:58:19.377Z,8.99
2022-10-31T04:59:19.366Z,8.96
2022-10-31T05:00:19.385Z,8.94
2022-10-31T05:01:19.434Z,9.09
2022-10-31T05:02:19.500Z,9.05
2022-10-31T05:03:19.324Z,9.04
2022-10-31T05:04:19.312Z,9.04
2022-10-31T05:05:19.259Z,8.88
2022-10-31T05:06:19.284Z,8.79
2022-10-31T05:07:19.201Z,8.65
2022-10-31T05:08:19.234Z,8.48
2022-10-31T05:09:19.209Z,8.26
2022-10-31T05:10:19.343Z,8.14
2022-10-31T05:11:19.365Z,8.03
2022-10-31T05:12:20.272Z,7.96
2022-10-31T05:13:19.191Z,7.94
2022-10-31T05:14:19.269Z,7.94
2022-10-31T05:15:19.223Z,8.12
2022-10-31T05:16:19.275Z,8.00
2022-10-31T05:17:19.238Z,8.10
2022-10-31T05:18:19.237Z,8.04
2022-10-31T05:19:19.220Z,8.22
2022-10-31T05:20:19.232Z,8.35
2022-10-31T05:21:19.236Z,8.42
2022-10-31T05:22:19.202Z,8.39
2022-10-31T05:23:19.167Z,8.45
2022-10-31T05:24:19.191Z,8.47
2022-10-31T05:25:19.180Z,8.48
2022-10-31T05:26:19.218Z,8.44
2022-10-31T05:27:19.609Z,8.35
2022-10-31T05:28:19.205Z,8.29
2022-10-31T05:29:19.161Z,8.35
2022-10-31T05:30:19.043Z,8.37
2022-10-31T05:31:19.077Z,8.35
2022-10-31T05:32:19.043Z,8.36
2022-10-31T05:33:19.027Z,8.42
2022-10-31T05:34:19.031Z,8.39
2022-10-31T05:35:18.997Z,8.25
2022-10-31T05:36:19.083Z,8.14
2022-10-31T05:37:19.023Z,8.10
2022-10-31T05:38:19.140Z,8.20
2022-10-31T05:39:19.061Z,8.25
2022-10-31T05:40:19.079Z,8.28
2022-10-31T05:41:19.061Z,8.40
2022-10-31T05:42:19.063Z,8.42
2022-10-31T05:43:19.083Z,8.44
2022-10-31T05:44:19.017Z,8.47
2022-10-31T05:45:19.040Z,8.37
2022-10-31T05:46:19.039Z,8.42
2022-10-31T05:47:19.022Z,8.48
2022-10-31T05:48:19.011Z,8.44
2022-10-31T05:49:19.110Z,8.55
2022-10-31T05:50:18.972Z,8.55
2022-10-31T05:51:19.049Z,8.62
2022-10-31T05:52:18.975Z,8.54
2022-10-31T05:53:19.056Z,8.53
2022-10-31T05:54:19.006Z,8.45
2022-10-31T05:55:19.062Z,8.35
2022-10-31T05:56:18.986Z,8.45
2022-10-31T05:57:19.066Z,8.45
2022-10-31T05:58:18.924Z,8.48
2022-10-31T05:59:18.962Z,8.51
2022-10-31T06:00:18.938Z,8.58
2022-10-31T06:01:20.823Z,8.57
2022-10-31T06:02:19.941Z,8.60
2022-10-31T06:03:18.922Z,8.55
2022-10-31T06:04:18.933Z,8.60
2022-10-31T06:05:18.853Z,8.60
2022-10-31T06:06:18.807Z,8.63
2022-10-31T06:07:18.795Z,8.60
2022-10-31T06:08:18.794Z,8.50
2022-10-31T06:09:18.802Z,8.58
2022-10-31T06:10:18.721Z,8.53
2022-10-31T06:11:19.786Z,8.55
2022-10-31T06:12:18.770Z,8.47
2022-10-31T06:13:18.734Z,8.55
2022-10-31T06:14:18.720Z,8.51
2022-10-31T06:15:23.742Z,8.69
2022-10-31T06:16:20.776Z,8.60
2022-10-31T06:17:18.718Z,8.75
2022-10-31T06:18:18.884Z,8.57
2022-10-31T06:19:18.792Z,8.40
2022-10-31T06:20:18.887Z,8.33
2022-10-31T06:21:19.277Z,8.45
2022-10-31T06:22:18.810Z,8.32
2022-10-31T06:23:18.775Z,8.39
2022-10-31T06:24:18.769Z,8.36
2022-10-31T06:25:18.746Z,8.36
2022-10-31T06:26:18.745Z,8.48
2022-10-31T06:27:18.821Z,8.54
2022-10-31T06:28:18.780Z,8.47
2022-10-31T06:29:18.729Z,8.53
2022-10-31T06:30:18.729Z,8.50
2022-10-31T06:31:18.724Z,8.45
2022-10-31T06:32:18.726Z,8.57
2022-10-31T06:33:18.725Z,8.58
2022-10-31T06:34:18.602Z,8.55
2022-10-31T06:35:18.599Z,8.62
2022-10-31T06:36:18.613Z,8.60
2022-10-31T06:37:18.609Z,8.55
2022-10-31T06:38:18.630Z,8.71
2022-10-31T06:39:18.651Z,8.68
2022-10-31T06:40:18.656Z,8.76
2022-10-31T06:41:18.753Z,8.83
2022-10-31T06:42:18.649Z,8.83
2022-10-31T06:43:18.751Z,8.88
2022-10-31T06:44:18.609Z,8.84
2022-10-31T06:45:18.611Z,8.60
2022-10-31T06:46:18.610Z,8.35
2022-10-31T06:47:18.585Z,8.12
2022-10-31T06:48:18.846Z,8.10
2022-10-31T06:49:18.628Z,8.04
2022-10-31T06:50:18.577Z,7.94
2022-10-31T06:51:18.590Z,7.93
2022-10-31T06:52:18.550Z,7.92
2022-10-31T06:53:18.644Z,8.07
2022-10-31T06:54:18.581Z,8.12
2022-10-31T06:55:18.701Z,8.22
2022-10-31T06:56:18.570Z,8.25
2022-10-31T06:57:18.541Z,8.21
2022-10-31T06:58:18.717Z,8.15
2022-10-31T06:59:18.501Z,8.36
2022-10-31T07:00:18.624Z,8.37
2022-10-31T07:01:18.482Z,8.39
2022-10-31T07:02:18.493Z,8.28
2022-10-31T07:03:18.417Z,8.28
2022-10-31T07:04:18.411Z,8.28
2022-10-31T07:05:18.419Z,8.22
2022-10-31T07:06:18.427Z,8.28
2022-10-31T07:07:18.477Z,8.21
2022-10-31T07:08:18.478Z,8.29
2022-10-31T07:09:18.475Z,8.21
2022-10-31T07:10:18.534Z,8.21
2022-10-31T07:11:18.460Z,8.25
2022-10-31T07:12:18.449Z,8.37
2022-10-31T07:13:18.458Z,8.44
2022-10-31T07:14:18.447Z,8.42
2022-10-31T07:15:18.443Z,8.51
2022-10-31T07:16:18.478Z,8.51
2022-10-31T07:17:18.431Z,8.65
2022-10-31T07:18:18.418Z,8.71
2022-10-31T07:19:18.424Z,8.83
2022-10-31T07:20:19.425Z,8.90
2022-10-31T07:21:18.515Z,8.93
2022-10-31T07:22:18.414Z,9.09
2022-10-31T07:23:18.515Z,9.12
2022-10-31T07:24:18.394Z,9.01
2022-10-31T07:25:18.448Z,9.10
2022-10-31T07:26:18.365Z,9.15
2022-10-31T07:27:19.455Z,9.18
2022-10-31T07:28:18.266Z,9.23
2022-10-31T07:29:18.253Z,9.25
2022-10-31T07:30:18.209Z,9.25
2022-10-31T07:31:18.500Z,9.38
2022-10-31T07:32:18.252Z,9.34
2022-10-31T07:33:18.303Z,9.28
2022-10-31T07:34:18.212Z,9.30
2022-10-31T07:35:18.214Z,9.25
2022-10-31T07:36:18.160Z,9.23
2022-10-31T07:37:18.301Z,9.25
2022-10-31T07:38:18.237Z,9.31
2022-10-31T07:39:18.195Z,9.28
2022-10-31T07:40:18.183Z,9.28
2022-10-31T07:41:18.165Z,9.43
2022-10-31T07:42:18.268Z,9.42
2022-10-31T07:43:18.288Z,9.42
2022-10-31T07:44:18.230Z,9.50
2022-10-31T07:45:18.234Z,9.61
2022-10-31T07:46:18.280Z,9.76
2022-10-31T07:47:18.241Z,9.76
2022-10-31T07:48:19.134Z,9.78
2022-10-31T07:49:18.217Z,9.79
2022-10-31T07:50:18.300Z,9.94
2022-10-31T07:51:18.197Z,9.94
2022-10-31T07:52:18.295Z,9.97
2022-10-31T07:53:18.212Z,9.96
2022-10-31T07:54:18.238Z,9.82
2022-10-31T07:55:18.167Z,9.89
2022-10-31T07:56:18.146Z,10.03
2022-10-31T07:57:21.491Z,10.17
2022-10-31T07:58:20.248Z,10.12
2022-10-31T07:59:18.088Z,10.09
2022-10-31T08:00:18.058Z,9.96
2022-10-31T08:01:18.032Z,10.06
2022-10-31T08:02:18.095Z,10.10
2022-10-31T08:03:18.012Z,9.93
2022-10-31T08:04:28.612Z,9.99
2022-10-31T08:05:19.012Z,10.04
2022-10-31T08:06:17.977Z,10.21
2022-10-31T08:07:18.180Z,10.21
2022-10-31T08:08:18.590Z,10.21
2022-10-31T08:09:18.133Z,10.15
2022-10-31T08:10:19.123Z,10.15
2022-10-31T08:11:18.129Z,10.21
2022-10-31T08:12:18.038Z,10.24
2022-10-31T08:13:18.143Z,10.32
2022-10-31T08:14:18.044Z,10.22
2022-10-31T08:15:18.067Z,10.44
2022-10-31T08:16:18.031Z,10.52
2022-10-31T08:17:18.023Z,10.63
2022-10-31T08:18:17.985Z,10.59
2022-10-31T08:19:17.927Z,10.70
2022-10-31T08:20:17.893Z,10.74
2022-10-31T08:21:17.921Z,10.80
2022-10-31T08:22:17.899Z,10.86
2022-10-31T08:23:17.890Z,10.96
2022-10-31T08:24:17.839Z,11.01
2022-10-31T08:25:18.038Z,11.27
2022-10-31T08:26:17.925Z,11.27
2022-10-31T08:27:17.814Z,11.27
2022-10-31T08:28:17.939Z,11.41
2022-10-31T08:29:17.925Z,11.44
2022-10-31T08:30:18.006Z,11.50
2022-10-31T08:31:18.175Z,11.53
2022-10-31T08:32:17.981Z,11.57
2022-10-31T08:33:17.900Z,11.62
2022-10-31T08:34:17.964Z,11.65
2022-10-31T08:35:17.905Z,11.82
2022-10-31T08:36:17.943Z,11.89
2022-10-31T08:37:17.901Z,12.01
2022-10-31T08:38:17.924Z,11.99
2022-10-31T08:39:17.847Z,12.08
2022-10-31T08:40:17.867Z,12.01
2022-10-31T08:41:17.827Z,12.12
2022-10-31T08:42:18.501Z,12.13
2022-10-31T08:43:17.805Z,12.13
2022-10-31T08:44:17.848Z,12.20
2022-10-31T08:45:17.791Z,12.27
2022-10-31T08:46:17.727Z,12.41
2022-10-31T08:47:17.740Z,12.41
2022-10-31T08:48:17.767Z,12.54
2022-10-31T08:49:17.698Z,12.42
2022-10-31T08:50:17.647Z,12.44
2022-10-31T08:51:17.673Z,12.41
2022-10-31T08:52:17.764Z,12.34
2022-10-31T08:53:17.702Z,12.45
2022-10-31T08:54:17.612Z,12.59
2022-10-31T08:55:17.739Z,12.66
2022-10-31T08:56:17.790Z,12.70
2022-10-31T08:57:17.864Z,12.89
2022-10-31T08:58:17.625Z,12.81
2022-10-31T08:59:17.834Z,12.79
2022-10-31T09:00:17.574Z,12.84
2022-10-31T09:01:17.989Z,12.96
2022-10-31T09:02:17.756Z,13.03
2022-10-31T09:03:17.682Z,13.09
2022-10-31T09:04:17.636Z,13.03
2022-10-31T09:05:17.609Z,12.96
2022-10-31T09:06:17.732Z,13.12
2022-10-31T09:07:21.417Z,13.18
2022-10-31T09:08:18.627Z,13.20
2022-10-31T09:09:17.619Z,13.21
2022-10-31T09:10:17.695Z,13.32
2022-10-31T09:11:17.616Z,13.43
2022-10-31T09:12:17.577Z,13.37
2022-10-31T09:13:17.585Z,13.46
2022-10-31T09:14:17.577Z,13.36
2022-10-31T09:15:17.624Z,13.38
2022-10-31T09:16:17.664Z,13.44
2022-10-31T09:17:17.460Z,13.40
2022-10-31T09:18:17.455Z,13.55
2022-10-31T09:19:17.527Z,13.62
2022-10-31T09:20:17.937Z,13.56
2022-10-31T09:21:17.432Z,13.58
2022-10-31T09:22:17.432Z,13.67
2022-10-31T09:23:17.433Z,13.83
2022-10-31T09:24:17.421Z,13.94
2022-10-31T09:25:17.409Z,14.02
2022-10-31T09:26:17.435Z,14.07
2022-10-31T09:27:17.356Z,13.92
2022-10-31T09:28:17.356Z,14.04
2022-10-31T09:29:17.377Z,14.07
2022-10-31T09:30:17.359Z,13.95
2022-10-31T09:31:17.691Z,13.89
2022-10-31T09:32:17.374Z,13.96
2022-10-31T09:33:17.335Z,14.06
2022-10-31T09:34:17.332Z,14.10
2022-10-31T09:35:19.268Z,14.21
2022-10-31T09:36:17.384Z,14.16
2022-10-31T09:37:17.524Z,14.31
2022-10-31T09:38:17.409Z,14.34
2022-10-31T09:39:17.319Z,14.46
2022-10-31T09:40:17.296Z,14.44
2022-10-31T09:41:17.319Z,14.54
2022-10-31T09:42:17.336Z,14.42
2022-10-31T09:43:17.298Z,14.44
2022-10-31T09:44:17.399Z,14.52
2022-10-31T09:45:17.480Z,14.57
2022-10-31T09:46:17.279Z,14.50
2022-10-31T09:47:17.263Z,14.49
2022-10-31T09:48:17.318Z,14.44
2022-10-31T09:49:17.363Z,14.57
2022-10-31T09:50:17.345Z,14.61
2022-10-31T09:51:17.358Z,14.65
2022-10-31T09:52:17.322Z,14.88
2022-10-31T09:53:17.361Z,14.94
2022-10-31T09:54:17.305Z,15.05
2022-10-31T09:55:17.333Z,15.02
2022-10-31T09:56:17.296Z,15.12
2022-10-31T09:57:17.406Z,15.19
2022-10-31T09:58:17.268Z,15.17
2022-10-31T09:59:17.274Z,15.24
2022-10-31T10:00:17.271Z,15.24
2022-10-31T10:01:17.457Z,15.27
2022-10-31T10:02:17.446Z,15.26
2022-10-31T10:03:17.252Z,15.26
2022-10-31T10:04:20.677Z,15.26
2022-10-31T10:05:17.136Z,15.30
2022-10-31T10:06:17.119Z,15.31
2022-10-31T10:07:17.141Z,15.24
2022-10-31T10:08:17.292Z,15.41
2022-10-31T10:09:17.130Z,15.42
2022-10-31T10:10:17.191Z,15.56
2022-10-31T10:11:17.085Z,15.54
2022-10-31T10:12:17.113Z,15.52
2022-10-31T10:13:17.113Z,15.61
2022-10-31T10:14:17.148Z,15.56
2022-10-31T10:15:17.208Z,15.51
2022-10-31T10:16:17.170Z,15.49
2022-10-31T10:17:17.132Z,15.48
2022-10-31T10:18:18.001Z,15.31
2022-10-31T10:19:17.134Z,15.46
2022-10-31T10:20:20.600Z,15.64
2022-10-31T10:21:19.143Z,15.74
2022-10-31T10:22:17.111Z,15.78
2022-10-31T10:23:17.127Z,15.94
2022-10-31T10:24:17.152Z,15.97
2022-10-31T10:25:17.178Z,16.15
2022-10-31T10:26:17.196Z,16.18
2022-10-31T10:27:20.646Z,16.23
2022-10-31T10:28:18.062Z,16.33
2022-10-31T10:29:17.181Z,16.35
2022-10-31T10:30:17.075Z,16.40
2022-10-31T10:31:16.995Z,16.35
2022-10-31T10:32:17.223Z,16.37
2022-10-31T10:33:16.911Z,16.37
2022-10-31T10:34:16.982Z,16.50
2022-10-31T10:35:16.944Z,16.55
2022-10-31T10:36:16.947Z,16.60
2022-10-31T10:37:16.981Z,16.55
2022-10-31T10:38:16.914Z,16.62
2022-10-31T10:39:16.927Z,16.56
2022-10-31T10:40:16.908Z,16.70
2022-10-31T10:41:16.944Z,16.74
2022-10-31T10:42:16.886Z,16.85
2022-10-31T10:43:17.071Z,16.74
2022-10-31T10:44:16.981Z,16.75
2022-10-31T10:45:16.907Z,16.83
2022-10-31T10:46:16.984Z,16.93
2022-10-31T10:47:16.978Z,16.89
2022-10-31T10:48:17.072Z,16.96
2022-10-31T10:49:16.979Z,17.03
2022-10-31T10:50:17.026Z,16.95
2022-10-31T10:51:25.748Z,17.03
2022-10-31T10:52:50.184Z,17.11
2022-10-31T10:53:18.887Z,17.20
2022-10-31T10:54:17.005Z,17.26
2022-10-31T10:55:16.885Z,17.29
2022-10-31T10:56:16.891Z,17.40
2022-10-31T10:57:16.887Z,17.43
2022-10-31T10:58:16.903Z,17.50
2022-10-31T10:59:16.825Z,17.62
2022-10-31T11:00:16.790Z,17.67
2022-10-31T11:01:16.773Z,17.66
2022-10-31T11:02:16.736Z,17.73
2022-10-31T11:03:16.759Z,17.71
2022-10-31T11:04:16.949Z,17.81
2022-10-31T11:05:16.691Z,17.66
2022-10-31T11:06:16.757Z,17.50
2022-10-31T11:07:16.747Z,17.51
2022-10-31T11:08:16.697Z,17.53
2022-10-31T11:09:16.696Z,17.69
2022-10-31T11:10:16.939Z,17.63
2022-10-31T11:11:16.830Z,17.59
2022-10-31T11:12:16.822Z,17.57
2022-10-31T11:13:16.847Z,17.70
2022-10-31T11:14:16.763Z,17.74
2022-10-31T11:15:16.981Z,17.88
2022-10-31T11:16:16.757Z,17.95
2022-10-31T11:17:16.847Z,17.94
2022-10-31T11:18:16.749Z,18.00
2022-10-31T11:19:16.803Z,17.94
2022-10-31T11:20:19.055Z,17.89
2022-10-31T11:21:16.761Z,17.94
2022-10-31T11:22:16.664Z,18.04
2022-10-31T11:23:16.672Z,18.13
2022-10-31T11:24:16.696Z,18.21
2022-10-31T11:25:16.681Z,18.24
2022-10-31T11:26:16.697Z,18.25
2022-10-31T11:27:16.897Z,18.21
2022-10-31T11:28:16.603Z,18.28
2022-10-31T11:29:16.620Z,18.28
2022-10-31T11:30:16.564Z,18.25
2022-10-31T11:31:16.562Z,18.28
2022-10-31T11:32:16.788Z,18.44
2022-10-31T11:33:16.564Z,18.61
2022-10-31T11:34:16.492Z,18.65
2022-10-31T11:35:16.643Z,18.79
2022-10-31T11:36:16.678Z,18.64
2022-10-31T11:37:16.643Z,18.77
2022-10-31T11:38:16.661Z,18.77
2022-10-31T11:39:16.579Z,18.83
2022-10-31T11:40:16.791Z,18.95
2022-10-31T11:41:16.607Z,18.95
2022-10-31T11:42:16.778Z,19.01
2022-10-31T11:43:16.599Z,19.05
2022-10-31T11:44:16.522Z,19.23
2022-10-31T11:45:16.616Z,19.24
2022-10-31T11:46:16.540Z,19.31
2022-10-31T11:47:16.647Z,19.33
2022-10-31T11:48:16.547Z,19.33
2022-10-31T11:49:16.485Z,19.32
2022-10-31T11:50:16.551Z,19.31
2022-10-31T11:51:17.508Z,19.36
2022-10-31T11:52:16.598Z,19.29
2022-10-31T11:53:16.454Z,19.28
2022-10-31T11:54:16.408Z,19.20
2022-10-31T11:55:16.614Z,19.24
2022-10-31T11:56:17.393Z,19.20
2022-10-31T11:57:16.561Z,19.36
2022-10-31T11:58:16.747Z,19.39
2022-10-31T11:59:16.374Z,19.39
2022-10-31T12:00:16.492Z,19.46
2022-10-31T12:01:16.362Z,19.60
2022-10-31T12:02:16.512Z,19.65
2022-10-31T12:03:16.475Z,19.63
2022-10-31T12:04:17.648Z,19.66
2022-10-31T12:05:16.542Z,19.63
2022-10-31T12:06:16.446Z,19.66
2022-10-31T12:07:16.422Z,19.80
2022-10-31T12:08:16.418Z,19.78
2022-10-31T12:09:16.416Z,19.83
2022-10-31T12:10:16.500Z,19.78
2022-10-31T12:11:16.402Z,19.87
2022-10-31T12:12:16.369Z,19.83
2022-10-31T12:13:16.358Z,19.78
2022-10-31T12:14:16.309Z,19.72
2022-10-31T12:15:16.389Z,19.88
2022-10-31T12:16:16.312Z,19.88
2022-10-31T12:17:16.365Z,20.03
2022-10-31T12:18:16.392Z,19.95
2022-10-31T12:19:16.332Z,19.93
2022-10-31T12:20:16.446Z,20.02
2022-10-31T12:21:16.187Z,20.10
2022-10-31T12:22:16.191Z,20.13
2022-10-31T12:23:16.158Z,20.20
2022-10-31T12:24:16.236Z,20.08
2022-10-31T12:25:16.169Z,20.13
2022-10-31T12:26:16.217Z,19.88
2022-10-31T12:27:16.193Z,19.78
2022-10-31T12:28:16.163Z,19.86
2022-10-31T12:29:16.152Z,20.09
2022-10-31T12:30:16.246Z,20.13
2022-10-31T12:31:16.187Z,20.24
2022-10-31T12:32:16.153Z,20.31
2022-10-31T12:33:16.306Z,20.25
2022-10-31T12:34:16.277Z,20.24
2022-10-31T12:35:16.174Z,20.24
2022-10-31T12:36:16.474Z,20.38
2022-10-31T12:37:16.224Z,20.51
2022-10-31T12:38:17.140Z,20.46
2022-10-31T12:39:16.722Z,20.62
2022-10-31T12:40:16.125Z,20.59
2022-10-31T12:41:16.218Z,20.72
2022-10-31T12:42:16.178Z,20.65
2022-10-31T12:43:16.204Z,20.83
2022-10-31T12:44:16.114Z,20.93
2022-10-31T12:45:17.091Z,21.17
2022-10-31T12:46:16.055Z,21.24
2022-10-31T12:47:16.247Z,21.54
2022-10-31T12:48:16.138Z,21.75
2022-10-31T12:49:16.116Z,22.10
2022-10-31T12:50:17.075Z,22.37
2022-10-31T12:51:16.063Z,22.59
2022-10-31T12:52:16.084Z,22.69
2022-10-31T12:53:16.265Z,22.75
2022-10-31T12:54:16.060Z,23.05
2022-10-31T12:55:16.059Z,22.86
2022-10-31T12:56:16.041Z,22.77
2022-10-31T12:57:16.011Z,22.67
2022-10-31T12:58:16.045Z,22.68
2022-10-31T12:59:16.042Z,22.68
2022-10-31T13:00:16.061Z,22.77
2022-10-31T13:01:15.973Z,23.17
2022-10-31T13:02:16.072Z,23.09
2022-10-31T13:03:15.881Z,23.32
2022-10-31T13:04:16.142Z,23.40
2022-10-31T13:05:15.899Z,23.35
2022-10-31T13:06:15.903Z,23.23
2022-10-31T13:07:15.828Z,22.90
2022-10-31T13:08:16.061Z,23.01
2022-10-31T13:09:16.091Z,23.01
2022-10-31T13:10:16.037Z,23.20
2022-10-31T13:11:15.929Z,23.24